sensor_id;sensor_type;location;lat;lon;timestamp;P1;durP1;ratioP1;P2;durP2;ratioP2
33254;SDS011;19623;52.482;9.762;2023-01-13T00:01:17;1.00;;;0.95;;
33254;SDS011;19623;52.482;9.762;2023-01-13T00:03:44;1.65;;;1.20;;
33254;SDS011;19623;52.482;9.762;2023-01-13T00:06:17;1.15;;;1.10;;
33254;SDS011;19623;52.482;9.762;2023-01-13T00:08:46;1.20;;;1.10;;
33254;SDS011;19623;52.482;9.762;2023-01-13T00:11:13;1.33;;;1.13;;
33254;SDS011;19623;52.482;9.762;2023-01-13T00:13:39;5.10;;;1.10;;
33254;SDS011;19623;52.482;9.762;2023-01-13T00:16:07;1.20;;;1.10;;
33254;SDS011;19623;52.482;9.762;2023-01-13T00:18:37;1.85;;;1.20;;
33254;SDS011;19623;52.482;9.762;2023-01-13T00:21:04;1.77;;;1.35;;
33254;SDS011;19623;52.482;9.762;2023-01-13T00:23:31;1.73;;;1.20;;
33254;SDS011;19623;52.482;9.762;2023-01-13T00:25:59;1.40;;;1.20;;
33254;SDS011;19623;52.482;9.762;2023-01-13T00:28:27;1.50;;;1.30;;
33254;SDS011;19623;52.482;9.762;2023-01-13T00:30:53;1.58;;;1.48;;
33254;SDS011;19623;52.482;9.762;2023-01-13T00:33:22;1.70;;;1.50;;
33254;SDS011;19623;52.482;9.762;2023-01-13T00:35:55;3.03;;;1.55;;
33254;SDS011;19623;52.482;9.762;2023-01-13T00:38:22;2.53;;;1.60;;
33254;SDS011;19623;52.482;9.762;2023-01-13T00:40:54;2.88;;;1.55;;
33254;SDS011;19623;52.482;9.762;2023-01-13T00:43:28;3.22;;;1.80;;
33254;SDS011;19623;52.482;9.762;2023-01-13T00:45:56;2.22;;;1.92;;
33254;SDS011;19623;52.482;9.762;2023-01-13T00:48:23;2.40;;;1.75;;
33254;SDS011;19623;52.482;9.762;2023-01-13T00:53:35;2.60;;;1.60;;
33254;SDS011;19623;52.482;9.762;2023-01-13T00:56:03;1.90;;;1.30;;
33254;SDS011;19623;52.482;9.762;2023-01-13T00:58:31;2.67;;;1.13;;
33254;SDS011;19623;52.482;9.762;2023-01-13T01:01:01;1.80;;;1.30;;
33254;SDS011;19623;52.482;9.762;2023-01-13T01:03:29;4.05;;;1.58;;
33254;SDS011;19623;52.482;9.762;2023-01-13T01:05:56;1.20;;;1.10;;
33254;SDS011;19623;52.482;9.762;2023-01-13T01:08:22;1.88;;;1.00;;
33254;SDS011;19623;52.482;9.762;2023-01-13T01:10:48;1.10;;;1.00;;
33254;SDS011;19623;52.482;9.762;2023-01-13T01:13:13;1.25;;;1.05;;
33254;SDS011;19623;52.482;9.762;2023-01-13T01:15:41;0.73;;;0.60;;
33254;SDS011;19623;52.482;9.762;2023-01-13T01:18:08;1.63;;;0.60;;
33254;SDS011;19623;52.482;9.762;2023-01-13T01:20:35;2.13;;;0.70;;
33254;SDS011;19623;52.482;9.762;2023-01-13T01:23:01;1.35;;;0.70;;
33254;SDS011;19623;52.482;9.762;2023-01-13T01:25:27;0.57;;;0.57;;
33254;SDS011;19623;52.482;9.762;2023-01-13T01:27:53;0.70;;;0.55;;
33254;SDS011;19623;52.482;9.762;2023-01-13T01:30:18;2.83;;;0.93;;
33254;SDS011;19623;52.482;9.762;2023-01-13T01:32:44;2.83;;;0.95;;
33254;SDS011;19623;52.482;9.762;2023-01-13T01:35:10;2.20;;;0.80;;
33254;SDS011;19623;52.482;9.762;2023-01-13T01:37:35;1.63;;;0.80;;
33254;SDS011;19623;52.482;9.762;2023-01-13T01:40:01;2.20;;;0.60;;
33254;SDS011;19623;52.482;9.762;2023-01-13T01:42:26;2.95;;;0.80;;
33254;SDS011;19623;52.482;9.762;2023-01-13T01:45:13;1.20;;;0.80;;
33254;SDS011;19623;52.482;9.762;2023-01-13T01:47:43;2.20;;;0.77;;
33254;SDS011;19623;52.482;9.762;2023-01-13T01:50:11;2.25;;;0.98;;
33254;SDS011;19623;52.482;9.762;2023-01-13T01:52:40;2.17;;;0.90;;
33254;SDS011;19623;52.482;9.762;2023-01-13T01:55:15;2.90;;;1.10;;
33254;SDS011;19623;52.482;9.762;2023-01-13T02:00:24;1.33;;;0.93;;
33254;SDS011;19623;52.482;9.762;2023-01-13T02:02:52;1.13;;;0.60;;
33254;SDS011;19623;52.482;9.762;2023-01-13T02:05:17;0.70;;;0.68;;
33254;SDS011;19623;52.482;9.762;2023-01-13T02:07:44;0.98;;;0.68;;
33254;SDS011;19623;52.482;9.762;2023-01-13T02:10:14;2.80;;;0.97;;
33254;SDS011;19623;52.482;9.762;2023-01-13T02:12:43;1.52;;;0.70;;
33254;SDS011;19623;52.482;9.762;2023-01-13T02:15:12;2.92;;;0.77;;
33254;SDS011;19623;52.482;9.762;2023-01-13T02:17:44;2.35;;;1.00;;
33254;SDS011;19623;52.482;9.762;2023-01-13T02:32:22;0.85;;;0.73;;
33254;SDS011;19623;52.482;9.762;2023-01-13T02:37:36;1.65;;;0.88;;
33254;SDS011;19623;52.482;9.762;2023-01-13T02:42:37;2.60;;;1.10;;
33254;SDS011;19623;52.482;9.762;2023-01-13T02:45:32;3.83;;;0.95;;
33254;SDS011;19623;52.482;9.762;2023-01-13T02:48:20;3.92;;;1.00;;
33254;SDS011;19623;52.482;9.762;2023-01-13T02:51:04;3.13;;;1.15;;
33254;SDS011;19623;52.482;9.762;2023-01-13T02:53:34;3.58;;;1.60;;
33254;SDS011;19623;52.482;9.762;2023-01-13T02:56:10;4.30;;;0.90;;
33254;SDS011;19623;52.482;9.762;2023-01-13T02:58:39;1.98;;;0.88;;
33254;SDS011;19623;52.482;9.762;2023-01-13T03:01:07;5.85;;;1.33;;
33254;SDS011;19623;52.482;9.762;2023-01-13T03:03:33;1.77;;;0.80;;
33254;SDS011;19623;52.482;9.762;2023-01-13T03:11:08;4.68;;;1.20;;
33254;SDS011;19623;52.482;9.762;2023-01-13T03:18:34;5.00;;;1.65;;
33254;SDS011;19623;52.482;9.762;2023-01-13T03:21:14;5.07;;;1.50;;
33254;SDS011;19623;52.482;9.762;2023-01-13T03:23:57;6.15;;;1.38;;
33254;SDS011;19623;52.482;9.762;2023-01-13T03:26:46;6.63;;;1.00;;
33254;SDS011;19623;52.482;9.762;2023-01-13T03:29:20;4.20;;;1.20;;
33254;SDS011;19623;52.482;9.762;2023-01-13T03:32:02;9.35;;;1.30;;
33254;SDS011;19623;52.482;9.762;2023-01-13T03:34:52;8.23;;;1.77;;
33254;SDS011;19623;52.482;9.762;2023-01-13T03:37:22;6.72;;;1.77;;
33254;SDS011;19623;52.482;9.762;2023-01-13T03:39:54;7.07;;;1.90;;
33254;SDS011;19623;52.482;9.762;2023-01-13T03:42:25;6.90;;;1.70;;
33254;SDS011;19623;52.482;9.762;2023-01-13T03:45:13;10.85;;;2.03;;
33254;SDS011;19623;52.482;9.762;2023-01-13T03:47:43;8.20;;;1.50;;
33254;SDS011;19623;52.482;9.762;2023-01-13T03:50:18;5.90;;;1.25;;
33254;SDS011;19623;52.482;9.762;2023-01-13T03:52:49;8.57;;;2.13;;
33254;SDS011;19623;52.482;9.762;2023-01-13T03:55:23;11.95;;;1.95;;
33254;SDS011;19623;52.482;9.762;2023-01-13T04:00:58;11.40;;;2.10;;
33254;SDS011;19623;52.482;9.762;2023-01-13T04:03:35;6.47;;;1.42;;
33254;SDS011;19623;52.482;9.762;2023-01-13T04:08:48;5.47;;;1.60;;
33254;SDS011;19623;52.482;9.762;2023-01-13T04:11:37;9.32;;;2.25;;
33254;SDS011;19623;52.482;9.762;2023-01-13T04:14:07;8.18;;;1.65;;
33254;SDS011;19623;52.482;9.762;2023-01-13T04:16:35;10.60;;;2.63;;
33254;SDS011;19623;52.482;9.762;2023-01-13T04:19:01;10.18;;;3.33;;
33254;SDS011;19623;52.482;9.762;2023-01-13T04:21:27;6.13;;;2.42;;
33254;SDS011;19623;52.482;9.762;2023-01-13T04:23:54;9.95;;;1.95;;
33254;SDS011;19623;52.482;9.762;2023-01-13T04:26:20;6.78;;;1.88;;
33254;SDS011;19623;52.482;9.762;2023-01-13T04:28:47;12.77;;;2.20;;
33254;SDS011;19623;52.482;9.762;2023-01-13T04:31:13;9.75;;;2.03;;
33254;SDS011;19623;52.482;9.762;2023-01-13T04:33:39;12.68;;;2.58;;
33254;SDS011;19623;52.482;9.762;2023-01-13T04:36:05;11.73;;;2.38;;
33254;SDS011;19623;52.482;9.762;2023-01-13T04:38:31;12.20;;;2.13;;
33254;SDS011;19623;52.482;9.762;2023-01-13T04:40:56;21.02;;;3.60;;
33254;SDS011;19623;52.482;9.762;2023-01-13T04:43:22;8.18;;;2.15;;
33254;SDS011;19623;52.482;9.762;2023-01-13T04:45:48;14.05;;;2.40;;
33254;SDS011;19623;52.482;9.762;2023-01-13T04:48:13;13.32;;;2.72;;
33254;SDS011;19623;52.482;9.762;2023-01-13T04:50:40;16.35;;;2.78;;
33254;SDS011;19623;52.482;9.762;2023-01-13T04:53:06;16.92;;;2.55;;
33254;SDS011;19623;52.482;9.762;2023-01-13T04:55:32;14.00;;;2.28;;
33254;SDS011;19623;52.482;9.762;2023-01-13T04:58:02;18.60;;;2.05;;
33254;SDS011;19623;52.482;9.762;2023-01-13T05:00:29;15.95;;;2.60;;
33254;SDS011;19623;52.482;9.762;2023-01-13T05:02:55;13.35;;;2.03;;
33254;SDS011;19623;52.482;9.762;2023-01-13T05:05:21;11.43;;;1.92;;
33254;SDS011;19623;52.482;9.762;2023-01-13T05:07:47;16.80;;;2.75;;
33254;SDS011;19623;52.482;9.762;2023-01-13T05:10:13;12.45;;;2.35;;
33254;SDS011;19623;52.482;9.762;2023-01-13T05:12:39;11.98;;;2.42;;
33254;SDS011;19623;52.482;9.762;2023-01-13T05:15:23;12.70;;;1.98;;
33254;SDS011;19623;52.482;9.762;2023-01-13T05:18:07;16.88;;;2.50;;
33254;SDS011;19623;52.482;9.762;2023-01-13T05:20:33;16.50;;;2.67;;
33254;SDS011;19623;52.482;9.762;2023-01-13T05:22:59;19.95;;;2.78;;
33254;SDS011;19623;52.482;9.762;2023-01-13T05:25:43;17.15;;;2.40;;
33254;SDS011;19623;52.482;9.762;2023-01-13T05:28:11;17.42;;;2.75;;
33254;SDS011;19623;52.482;9.762;2023-01-13T05:30:38;13.27;;;2.10;;
33254;SDS011;19623;52.482;9.762;2023-01-13T05:33:08;16.30;;;2.97;;
33254;SDS011;19623;52.482;9.762;2023-01-13T05:35:38;17.58;;;2.63;;
33254;SDS011;19623;52.482;9.762;2023-01-13T05:38:04;13.13;;;2.42;;
33254;SDS011;19623;52.482;9.762;2023-01-13T05:40:30;18.20;;;2.75;;
33254;SDS011;19623;52.482;9.762;2023-01-13T05:43:16;21.80;;;2.88;;
33254;SDS011;19623;52.482;9.762;2023-01-13T05:48:28;16.05;;;2.90;;
33254;SDS011;19623;52.482;9.762;2023-01-13T05:50:54;13.35;;;1.95;;
33254;SDS011;19623;52.482;9.762;2023-01-13T05:53:20;14.10;;;3.00;;
33254;SDS011;19623;52.482;9.762;2023-01-13T05:55:47;18.25;;;2.78;;
33254;SDS011;19623;52.482;9.762;2023-01-13T05:58:14;23.13;;;2.92;;
33254;SDS011;19623;52.482;9.762;2023-01-13T06:00:41;24.75;;;3.78;;
33254;SDS011;19623;52.482;9.762;2023-01-13T06:03:07;13.30;;;2.65;;
33254;SDS011;19623;52.482;9.762;2023-01-13T06:05:33;12.52;;;2.72;;
33254;SDS011;19623;52.482;9.762;2023-01-13T06:08:00;15.48;;;2.67;;
33254;SDS011;19623;52.482;9.762;2023-01-13T06:10:27;12.52;;;2.70;;
33254;SDS011;19623;52.482;9.762;2023-01-13T06:12:54;17.95;;;3.38;;
33254;SDS011;19623;52.482;9.762;2023-01-13T06:15:19;22.92;;;2.78;;
33254;SDS011;19623;52.482;9.762;2023-01-13T06:17:46;22.75;;;3.40;;
33254;SDS011;19623;52.482;9.762;2023-01-13T06:20:12;17.55;;;3.03;;
33254;SDS011;19623;52.482;9.762;2023-01-13T06:22:40;21.45;;;3.47;;
33254;SDS011;19623;52.482;9.762;2023-01-13T06:25:13;12.90;;;2.83;;
33254;SDS011;19623;52.482;9.762;2023-01-13T06:28:00;17.95;;;3.28;;
33254;SDS011;19623;52.482;9.762;2023-01-13T06:30:26;18.70;;;3.33;;
33254;SDS011;19623;52.482;9.762;2023-01-13T06:32:57;18.17;;;3.05;;
33254;SDS011;19623;52.482;9.762;2023-01-13T06:35:27;17.63;;;3.80;;
33254;SDS011;19623;52.482;9.762;2023-01-13T06:37:56;19.27;;;3.05;;
33254;SDS011;19623;52.482;9.762;2023-01-13T06:40:26;17.17;;;2.47;;
33254;SDS011;19623;52.482;9.762;2023-01-13T06:42:52;14.23;;;2.08;;
33254;SDS011;19623;52.482;9.762;2023-01-13T06:45:38;21.90;;;3.33;;
33254;SDS011;19623;52.482;9.762;2023-01-13T06:48:04;19.70;;;3.15;;
33254;SDS011;19623;52.482;9.762;2023-01-13T06:50:30;19.13;;;2.60;;
33254;SDS011;19623;52.482;9.762;2023-01-13T06:52:56;17.13;;;3.83;;
33254;SDS011;19623;52.482;9.762;2023-01-13T06:55:22;17.42;;;2.88;;
33254;SDS011;19623;52.482;9.762;2023-01-13T06:57:52;15.45;;;3.05;;
33254;SDS011;19623;52.482;9.762;2023-01-13T07:02:45;20.48;;;3.15;;
33254;SDS011;19623;52.482;9.762;2023-01-13T07:05:11;19.52;;;2.90;;
33254;SDS011;19623;52.482;9.762;2023-01-13T07:07:37;26.75;;;3.20;;
33254;SDS011;19623;52.482;9.762;2023-01-13T07:10:03;16.23;;;2.58;;
33254;SDS011;19623;52.482;9.762;2023-01-13T07:12:29;18.42;;;2.35;;
33254;SDS011;19623;52.482;9.762;2023-01-13T07:15:15;11.25;;;2.60;;
33254;SDS011;19623;52.482;9.762;2023-01-13T07:17:43;14.95;;;2.58;;
33254;SDS011;19623;52.482;9.762;2023-01-13T07:20:09;14.30;;;2.08;;
33254;SDS011;19623;52.482;9.762;2023-01-13T07:22:35;17.98;;;2.70;;
33254;SDS011;19623;52.482;9.762;2023-01-13T07:25:00;12.38;;;2.42;;
33254;SDS011;19623;52.482;9.762;2023-01-13T07:27:26;7.88;;;1.73;;
33254;SDS011;19623;52.482;9.762;2023-01-13T07:29:52;13.32;;;2.30;;
33254;SDS011;19623;52.482;9.762;2023-01-13T07:32:17;13.25;;;2.20;;
33254;SDS011;19623;52.482;9.762;2023-01-13T07:34:43;10.80;;;1.90;;
33254;SDS011;19623;52.482;9.762;2023-01-13T07:37:08;10.35;;;2.08;;
33254;SDS011;19623;52.482;9.762;2023-01-13T07:39:34;11.77;;;1.88;;
33254;SDS011;19623;52.482;9.762;2023-01-13T07:42:00;12.45;;;1.67;;
33254;SDS011;19623;52.482;9.762;2023-01-13T07:44:45;13.27;;;2.92;;
33254;SDS011;19623;52.482;9.762;2023-01-13T07:47:11;11.85;;;2.30;;
33254;SDS011;19623;52.482;9.762;2023-01-13T07:49:37;9.60;;;1.70;;
33254;SDS011;19623;52.482;9.762;2023-01-13T07:52:03;9.35;;;1.90;;
33254;SDS011;19623;52.482;9.762;2023-01-13T07:54:29;9.73;;;1.73;;
33254;SDS011;19623;52.482;9.762;2023-01-13T07:56:55;9.35;;;1.92;;
33254;SDS011;19623;52.482;9.762;2023-01-13T07:59:20;12.32;;;2.15;;
33254;SDS011;19623;52.482;9.762;2023-01-13T08:01:46;7.55;;;1.75;;
33254;SDS011;19623;52.482;9.762;2023-01-13T08:04:12;10.55;;;2.35;;
33254;SDS011;19623;52.482;9.762;2023-01-13T08:06:38;8.20;;;1.85;;
33254;SDS011;19623;52.482;9.762;2023-01-13T08:09:05;9.48;;;1.80;;
33254;SDS011;19623;52.482;9.762;2023-01-13T08:11:30;15.02;;;2.47;;
33254;SDS011;19623;52.482;9.762;2023-01-13T08:13:56;8.30;;;1.88;;
33254;SDS011;19623;52.482;9.762;2023-01-13T08:16:22;11.15;;;2.05;;
33254;SDS011;19623;52.482;9.762;2023-01-13T08:18:48;9.43;;;2.00;;
33254;SDS011;19623;52.482;9.762;2023-01-13T08:21:14;7.55;;;1.70;;
33254;SDS011;19623;52.482;9.762;2023-01-13T08:23:40;10.73;;;1.70;;
33254;SDS011;19623;52.482;9.762;2023-01-13T08:26:08;9.18;;;1.98;;
33254;SDS011;19623;52.482;9.762;2023-01-13T08:28:36;6.63;;;1.88;;
33254;SDS011;19623;52.482;9.762;2023-01-13T08:31:04;14.05;;;2.05;;
33254;SDS011;19623;52.482;9.762;2023-01-13T08:33:32;8.43;;;1.95;;
33254;SDS011;19623;52.482;9.762;2023-01-13T08:36:05;9.07;;;1.92;;
33254;SDS011;19623;52.482;9.762;2023-01-13T08:38:32;12.75;;;1.73;;
33254;SDS011;19623;52.482;9.762;2023-01-13T08:40:59;17.38;;;2.17;;
33254;SDS011;19623;52.482;9.762;2023-01-13T08:43:26;11.80;;;2.10;;
33254;SDS011;19623;52.482;9.762;2023-01-13T08:45:55;13.30;;;2.20;;
33254;SDS011;19623;52.482;9.762;2023-01-13T08:48:22;9.75;;;1.60;;
33254;SDS011;19623;52.482;9.762;2023-01-13T08:50:48;16.45;;;2.15;;
33254;SDS011;19623;52.482;9.762;2023-01-13T08:53:13;12.07;;;1.80;;
33254;SDS011;19623;52.482;9.762;2023-01-13T08:55:39;6.97;;;1.50;;
33254;SDS011;19623;52.482;9.762;2023-01-13T08:58:05;9.43;;;1.92;;
33254;SDS011;19623;52.482;9.762;2023-01-13T09:00:30;14.95;;;2.30;;
33254;SDS011;19623;52.482;9.762;2023-01-13T09:02:57;21.10;;;3.15;;
33254;SDS011;19623;52.482;9.762;2023-01-13T09:05:23;9.48;;;2.00;;
33254;SDS011;19623;52.482;9.762;2023-01-13T09:07:50;8.57;;;2.08;;
33254;SDS011;19623;52.482;9.762;2023-01-13T09:10:15;14.57;;;2.40;;
33254;SDS011;19623;52.482;9.762;2023-01-13T09:12:41;11.80;;;2.20;;
33254;SDS011;19623;52.482;9.762;2023-01-13T09:15:25;12.82;;;2.15;;
33254;SDS011;19623;52.482;9.762;2023-01-13T09:17:51;8.80;;;2.35;;
33254;SDS011;19623;52.482;9.762;2023-01-13T09:20:16;12.05;;;2.38;;
33254;SDS011;19623;52.482;9.762;2023-01-13T09:22:42;11.43;;;2.00;;
33254;SDS011;19623;52.482;9.762;2023-01-13T09:25:08;12.52;;;2.05;;
33254;SDS011;19623;52.482;9.762;2023-01-13T09:27:34;9.73;;;1.85;;
33254;SDS011;19623;52.482;9.762;2023-01-13T09:30:00;12.55;;;2.75;;
33254;SDS011;19623;52.482;9.762;2023-01-13T09:32:26;10.77;;;2.92;;
33254;SDS011;19623;52.482;9.762;2023-01-13T09:34:51;8.20;;;2.03;;
33254;SDS011;19623;52.482;9.762;2023-01-13T09:37:34;7.55;;;2.45;;
33254;SDS011;19623;52.482;9.762;2023-01-13T09:40:03;11.50;;;2.05;;
33254;SDS011;19623;52.482;9.762;2023-01-13T09:45:36;7.93;;;2.05;;
33254;SDS011;19623;52.482;9.762;2023-01-13T09:48:31;9.50;;;1.90;;
33254;SDS011;19623;52.482;9.762;2023-01-13T09:51:23;9.57;;;2.17;;
33254;SDS011;19623;52.482;9.762;2023-01-13T09:53:55;14.65;;;2.17;;
33254;SDS011;19623;52.482;9.762;2023-01-13T09:56:47;15.98;;;1.70;;
33254;SDS011;19623;52.482;9.762;2023-01-13T09:59:13;8.38;;;1.67;;
33254;SDS011;19623;52.482;9.762;2023-01-13T10:04:28;13.45;;;2.03;;
33254;SDS011;19623;52.482;9.762;2023-01-13T10:06:54;10.57;;;2.28;;
33254;SDS011;19623;52.482;9.762;2023-01-13T10:12:19;8.95;;;2.00;;
33254;SDS011;19623;52.482;9.762;2023-01-13T10:15:12;10.15;;;1.70;;
33254;SDS011;19623;52.482;9.762;2023-01-13T10:17:46;10.93;;;1.90;;
33254;SDS011;19623;52.482;9.762;2023-01-13T10:28:53;12.23;;;2.42;;
33254;SDS011;19623;52.482;9.762;2023-01-13T10:31:20;10.30;;;2.17;;
33254;SDS011;19623;52.482;9.762;2023-01-13T10:33:46;12.27;;;2.63;;
33254;SDS011;19623;52.482;9.762;2023-01-13T10:36:16;12.02;;;2.00;;
33254;SDS011;19623;52.482;9.762;2023-01-13T10:38:46;12.05;;;1.98;;
33254;SDS011;19623;52.482;9.762;2023-01-13T10:44:00;9.10;;;1.80;;
33254;SDS011;19623;52.482;9.762;2023-01-13T10:46:32;10.20;;;1.90;;
33254;SDS011;19623;52.482;9.762;2023-01-13T10:49:00;11.93;;;2.20;;
33254;SDS011;19623;52.482;9.762;2023-01-13T10:51:46;9.23;;;2.20;;
33254;SDS011;19623;52.482;9.762;2023-01-13T10:54:16;11.40;;;1.80;;
33254;SDS011;19623;52.482;9.762;2023-01-13T10:56:46;7.10;;;1.60;;
33254;SDS011;19623;52.482;9.762;2023-01-13T11:02:12;9.45;;;2.03;;
33254;SDS011;19623;52.482;9.762;2023-01-13T11:04:39;9.55;;;1.83;;
33254;SDS011;19623;52.482;9.762;2023-01-13T11:07:28;13.55;;;2.30;;
33254;SDS011;19623;52.482;9.762;2023-01-13T11:10:01;13.57;;;2.20;;
33254;SDS011;19623;52.482;9.762;2023-01-13T11:12:31;11.63;;;2.03;;
33254;SDS011;19623;52.482;9.762;2023-01-13T11:15:03;13.75;;;2.47;;
33254;SDS011;19623;52.482;9.762;2023-01-13T11:17:47;15.88;;;2.35;;
33254;SDS011;19623;52.482;9.762;2023-01-13T11:20:26;6.55;;;1.45;;
33254;SDS011;19623;52.482;9.762;2023-01-13T11:22:58;12.15;;;2.13;;
33254;SDS011;19623;52.482;9.762;2023-01-13T11:25:48;8.95;;;1.60;;
33254;SDS011;19623;52.482;9.762;2023-01-13T11:34:07;15.85;;;2.03;;
33254;SDS011;19623;52.482;9.762;2023-01-13T11:36:42;9.82;;;2.20;;
33254;SDS011;19623;52.482;9.762;2023-01-13T11:39:21;10.47;;;2.13;;
33254;SDS011;19623;52.482;9.762;2023-01-13T11:48:15;9.48;;;2.03;;
33254;SDS011;19623;52.482;9.762;2023-01-13T12:02:02;10.70;;;2.75;;
33254;SDS011;19623;52.482;9.762;2023-01-13T12:04:54;7.10;;;2.15;;
33254;SDS011;19623;52.482;9.762;2023-01-13T12:26:11;11.05;;;2.50;;
33254;SDS011;19623;52.482;9.762;2023-01-13T12:28:43;10.27;;;2.20;;
33254;SDS011;19623;52.482;9.762;2023-01-13T12:31:22;10.55;;;1.80;;
33254;SDS011;19623;52.482;9.762;2023-01-13T12:52:48;14.60;;;2.55;;
33254;SDS011;19623;52.482;9.762;2023-01-13T12:55:15;14.57;;;2.72;;
33254;SDS011;19623;52.482;9.762;2023-01-13T12:57:56;9.88;;;2.03;;
33254;SDS011;19623;52.482;9.762;2023-01-13T13:00:29;8.38;;;2.22;;
33254;SDS011;19623;52.482;9.762;2023-01-13T13:05:42;12.82;;;2.10;;
33254;SDS011;19623;52.482;9.762;2023-01-13T13:08:25;14.35;;;2.20;;
33254;SDS011;19623;52.482;9.762;2023-01-13T13:13:59;13.55;;;2.13;;
33254;SDS011;19623;52.482;9.762;2023-01-13T13:22:36;19.48;;;2.92;;
33254;SDS011;19623;52.482;9.762;2023-01-13T13:24:35;14.10;;;2.47;;
33254;SDS011;19623;52.482;9.762;2023-01-13T13:41:20;13.75;;;2.97;;
33254;SDS011;19623;52.482;9.762;2023-01-13T13:44:26;12.60;;;2.50;;
33254;SDS011;19623;52.482;9.762;2023-01-13T13:47:18;14.68;;;2.47;;
33254;SDS011;19623;52.482;9.762;2023-01-13T13:49:44;10.50;;;1.90;;
33254;SDS011;19623;52.482;9.762;2023-01-13T13:52:49;8.07;;;1.65;;
33254;SDS011;19623;52.482;9.762;2023-01-13T13:55:14;13.68;;;1.90;;
33254;SDS011;19623;52.482;9.762;2023-01-13T13:57:48;9.27;;;1.77;;
33254;SDS011;19623;52.482;9.762;2023-01-13T14:00:20;13.57;;;2.15;;
33254;SDS011;19623;52.482;9.762;2023-01-13T14:02:58;13.90;;;2.22;;
33254;SDS011;19623;52.482;9.762;2023-01-13T14:05:35;13.25;;;1.98;;
33254;SDS011;19623;52.482;9.762;2023-01-13T14:08:08;11.93;;;2.00;;
33254;SDS011;19623;52.482;9.762;2023-01-13T14:10:42;9.77;;;2.00;;
33254;SDS011;19623;52.482;9.762;2023-01-13T14:13:13;8.90;;;1.67;;
33254;SDS011;19623;52.482;9.762;2023-01-13T14:15:39;13.60;;;2.40;;
33254;SDS011;19623;52.482;9.762;2023-01-13T14:18:12;12.88;;;2.17;;
33254;SDS011;19623;52.482;9.762;2023-01-13T14:20:40;14.80;;;2.63;;
33254;SDS011;19623;52.482;9.762;2023-01-13T14:23:12;13.73;;;2.15;;
33254;SDS011;19623;52.482;9.762;2023-01-13T14:25:48;9.30;;;2.20;;
33254;SDS011;19623;52.482;9.762;2023-01-13T14:28:22;6.22;;;1.40;;
33254;SDS011;19623;52.482;9.762;2023-01-13T14:30:53;18.13;;;2.88;;
33254;SDS011;19623;52.482;9.762;2023-01-13T14:33:21;7.65;;;1.70;;
33254;SDS011;19623;52.482;9.762;2023-01-13T14:36:19;10.68;;;1.98;;
33254;SDS011;19623;52.482;9.762;2023-01-13T14:38:47;8.95;;;1.70;;
33254;SDS011;19623;52.482;9.762;2023-01-13T14:41:29;12.93;;;2.10;;
33254;SDS011;19623;52.482;9.762;2023-01-13T14:44:01;7.32;;;1.50;;
33254;SDS011;19623;52.482;9.762;2023-01-13T14:46:49;8.73;;;2.33;;
33254;SDS011;19623;52.482;9.762;2023-01-13T14:52:14;11.50;;;1.88;;
33254;SDS011;19623;52.482;9.762;2023-01-13T14:54:48;15.25;;;2.13;;
33254;SDS011;19623;52.482;9.762;2023-01-13T15:07:56;10.90;;;2.40;;
33254;SDS011;19623;52.482;9.762;2023-01-13T15:10:35;11.15;;;1.88;;
33254;SDS011;19623;52.482;9.762;2023-01-13T15:13:16;6.88;;;1.65;;
33254;SDS011;19623;52.482;9.762;2023-01-13T15:16:00;7.20;;;2.35;;
33254;SDS011;19623;52.482;9.762;2023-01-13T15:18:28;12.93;;;2.33;;
33254;SDS011;19623;52.482;9.762;2023-01-13T15:20:54;11.85;;;2.47;;
33254;SDS011;19623;52.482;9.762;2023-01-13T15:23:20;12.45;;;2.78;;
33254;SDS011;19623;52.482;9.762;2023-01-13T15:25:46;11.05;;;2.50;;
33254;SDS011;19623;52.482;9.762;2023-01-13T15:28:19;10.68;;;1.80;;
33254;SDS011;19623;52.482;9.762;2023-01-13T15:30:47;12.90;;;2.25;;
33254;SDS011;19623;52.482;9.762;2023-01-13T15:33:14;9.30;;;1.98;;
33254;SDS011;19623;52.482;9.762;2023-01-13T15:35:45;9.90;;;1.90;;
33254;SDS011;19623;52.482;9.762;2023-01-13T15:38:17;11.02;;;2.15;;
33254;SDS011;19623;52.482;9.762;2023-01-13T15:40:45;11.00;;;2.10;;
33254;SDS011;19623;52.482;9.762;2023-01-13T15:43:13;9.55;;;2.03;;
33254;SDS011;19623;52.482;9.762;2023-01-13T15:45:59;10.82;;;1.77;;
33254;SDS011;19623;52.482;9.762;2023-01-13T15:48:45;8.57;;;2.03;;
33254;SDS011;19623;52.482;9.762;2023-01-13T15:51:11;9.73;;;2.00;;
33254;SDS011;19623;52.482;9.762;2023-01-13T15:53:38;14.40;;;2.28;;
33254;SDS011;19623;52.482;9.762;2023-01-13T15:56:05;14.20;;;3.25;;
33254;SDS011;19623;52.482;9.762;2023-01-13T15:58:38;9.75;;;2.15;;
33254;SDS011;19623;52.482;9.762;2023-01-13T16:01:03;11.55;;;2.92;;
33254;SDS011;19623;52.482;9.762;2023-01-13T16:03:29;8.07;;;2.17;;
33254;SDS011;19623;52.482;9.762;2023-01-13T16:05:55;9.15;;;2.53;;
33254;SDS011;19623;52.482;9.762;2023-01-13T16:08:21;11.18;;;2.60;;
33254;SDS011;19623;52.482;9.762;2023-01-13T16:10:47;10.73;;;2.05;;
33254;SDS011;19623;52.482;9.762;2023-01-13T16:13:14;11.23;;;1.80;;
33254;SDS011;19623;52.482;9.762;2023-01-13T16:15:41;11.20;;;2.58;;
33254;SDS011;19623;52.482;9.762;2023-01-13T16:18:19;9.27;;;1.63;;
33254;SDS011;19623;52.482;9.762;2023-01-13T16:20:48;15.40;;;1.60;;
33254;SDS011;19623;52.482;9.762;2023-01-13T16:23:16;8.05;;;2.22;;
33254;SDS011;19623;52.482;9.762;2023-01-13T16:25:42;7.38;;;1.77;;
33254;SDS011;19623;52.482;9.762;2023-01-13T16:28:24;14.13;;;1.95;;
33254;SDS011;19623;52.482;9.762;2023-01-13T16:30:53;7.25;;;1.70;;
33254;SDS011;19623;52.482;9.762;2023-01-13T16:33:19;11.02;;;2.15;;
33254;SDS011;19623;52.482;9.762;2023-01-13T16:35:44;13.40;;;1.90;;
33254;SDS011;19623;52.482;9.762;2023-01-13T16:38:16;6.57;;;1.42;;
33254;SDS011;19623;52.482;9.762;2023-01-13T16:40:43;7.55;;;1.88;;
33254;SDS011;19623;52.482;9.762;2023-01-13T16:43:12;10.00;;;1.80;;
33254;SDS011;19623;52.482;9.762;2023-01-13T16:45:38;7.55;;;1.80;;
33254;SDS011;19623;52.482;9.762;2023-01-13T16:48:05;8.02;;;1.85;;
33254;SDS011;19623;52.482;9.762;2023-01-13T16:50:34;10.73;;;1.85;;
33254;SDS011;19623;52.482;9.762;2023-01-13T16:53:04;7.60;;;1.67;;
33254;SDS011;19623;52.482;9.762;2023-01-13T16:55:30;8.60;;;2.08;;
33254;SDS011;19623;52.482;9.762;2023-01-13T16:57:56;10.05;;;1.88;;
33254;SDS011;19623;52.482;9.762;2023-01-13T17:00:22;11.52;;;2.13;;
33254;SDS011;19623;52.482;9.762;2023-01-13T17:02:48;11.52;;;1.90;;
33254;SDS011;19623;52.482;9.762;2023-01-13T17:05:14;9.35;;;1.63;;
33254;SDS011;19623;52.482;9.762;2023-01-13T17:07:44;13.15;;;2.25;;
33254;SDS011;19623;52.482;9.762;2023-01-13T17:10:18;12.83;;;2.77;;
33254;SDS011;19623;52.482;9.762;2023-01-13T17:12:45;7.47;;;1.80;;
33254;SDS011;19623;52.482;9.762;2023-01-13T17:15:11;6.15;;;2.05;;
33254;SDS011;19623;52.482;9.762;2023-01-13T17:17:38;7.95;;;1.42;;
33254;SDS011;19623;52.482;9.762;2023-01-13T17:20:05;13.25;;;2.38;;
33254;SDS011;19623;52.482;9.762;2023-01-13T17:22:33;9.05;;;2.00;;
33254;SDS011;19623;52.482;9.762;2023-01-13T17:24:58;11.73;;;2.30;;
33254;SDS011;19623;52.482;9.762;2023-01-13T17:27:24;6.82;;;1.80;;
33254;SDS011;19623;52.482;9.762;2023-01-13T17:29:50;13.73;;;2.17;;
33254;SDS011;19623;52.482;9.762;2023-01-13T17:32:16;12.48;;;2.25;;
33254;SDS011;19623;52.482;9.762;2023-01-13T17:34:43;11.27;;;1.80;;
33254;SDS011;19623;52.482;9.762;2023-01-13T17:37:09;9.73;;;1.65;;
33254;SDS011;19623;52.482;9.762;2023-01-13T17:39:38;7.38;;;1.73;;
33254;SDS011;19623;52.482;9.762;2023-01-13T17:42:05;10.73;;;1.98;;
33254;SDS011;19623;52.482;9.762;2023-01-13T17:44:30;7.18;;;1.88;;
33254;SDS011;19623;52.482;9.762;2023-01-13T17:46:56;8.73;;;2.05;;